createdAt,value
2023-04-16T00:03:09.992Z,13.90
2023-04-16T00:06:32.162Z,15.27
2023-04-16T00:09:53.448Z,15.10
2023-04-16T00:13:15.510Z,14.88
2023-04-16T00:16:39.853Z,14.98
2023-04-16T00:20:01.327Z,14.55
2023-04-16T00:23:25.301Z,14.38
2023-04-16T00:26:47.587Z,14.98
2023-04-16T00:30:10.815Z,14.90
2023-04-16T00:33:34.348Z,15.20
2023-04-16T00:36:56.674Z,14.52
2023-04-16T00:40:18.158Z,15.15
2023-04-16T00:43:39.768Z,15.88
2023-04-16T00:47:01.425Z,14.70
2023-04-16T00:50:24.979Z,13.55
2023-04-16T00:53:47.465Z,14.52
2023-04-16T00:57:09.318Z,14.75
2023-04-16T01:00:31.178Z,14.55
2023-04-16T01:03:53.191Z,14.65
2023-04-16T01:07:16.699Z,15.35
2023-04-16T01:10:38.889Z,15.07
2023-04-16T01:14:00.595Z,15.20
2023-04-16T01:17:22.609Z,15.68
2023-04-16T01:20:46.766Z,15.00
2023-04-16T01:24:08.997Z,13.98
2023-04-16T01:27:31.209Z,14.85
2023-04-16T01:30:52.608Z,14.93
2023-04-16T01:34:23.589Z,16.30
2023-04-16T01:37:47.379Z,16.52
2023-04-16T01:41:09.353Z,17.13
2023-04-16T01:44:31.390Z,16.95
2023-04-16T01:47:54.026Z,17.73
2023-04-16T01:51:15.543Z,17.98
2023-04-16T01:54:38.740Z,18.48
2023-04-16T01:58:00.288Z,19.15
2023-04-16T02:01:25.880Z,19.00
2023-04-16T02:04:47.673Z,18.58
2023-04-16T02:08:09.974Z,18.60
2023-04-16T02:11:33.038Z,17.73
2023-04-16T02:14:55.542Z,18.70
2023-04-16T02:18:20.168Z,19.10
2023-04-16T02:21:42.262Z,18.75
2023-04-16T02:25:04.544Z,18.75
2023-04-16T02:28:27.472Z,18.17
2023-04-16T02:31:50.151Z,19.67
2023-04-16T02:35:12.754Z,18.70
2023-04-16T02:38:34.569Z,18.17
2023-04-16T02:41:56.165Z,18.67
2023-04-16T02:45:19.658Z,19.67
2023-04-16T02:48:41.430Z,18.92
2023-04-16T02:52:03.131Z,19.03
2023-04-16T02:55:25.144Z,19.33
2023-04-16T02:58:46.669Z,19.00
2023-04-16T03:02:09.812Z,19.53
2023-04-16T03:05:32.101Z,18.47
2023-04-16T03:08:54.063Z,18.97
2023-04-16T03:12:16.103Z,19.10
2023-04-16T03:15:37.914Z,19.77
2023-04-16T03:19:01.356Z,19.40
2023-04-16T03:22:23.273Z,19.53
2023-04-16T03:25:47.010Z,19.63
2023-04-16T03:29:12.206Z,19.27
2023-04-16T03:32:33.986Z,19.97
2023-04-16T03:35:59.074Z,20.37
2023-04-16T03:39:24.000Z,19.47
2023-04-16T03:42:46.204Z,19.23
2023-04-16T03:46:08.224Z,20.73
2023-04-16T03:49:30.654Z,20.43
2023-04-16T03:52:55.407Z,19.77
2023-04-16T03:56:17.563Z,20.23
2023-04-16T03:59:39.586Z,20.07
2023-04-16T04:03:01.913Z,20.70
2023-04-16T04:06:23.967Z,20.57
2023-04-16T04:09:47.546Z,20.83
2023-04-16T04:13:10.993Z,20.37
2023-04-16T04:16:33.279Z,19.40
2023-04-16T04:23:22.025Z,19.67
2023-04-16T04:26:46.227Z,19.33
2023-04-16T04:30:10.078Z,19.50
2023-04-16T04:33:33.162Z,18.42
2023-04-16T04:36:54.852Z,19.17
2023-04-16T04:40:16.942Z,20.38
2023-04-16T04:43:41.530Z,19.43
2023-04-16T04:47:03.274Z,19.38
2023-04-16T04:50:25.504Z,18.80
2023-04-16T04:53:47.393Z,17.80
2023-04-16T04:57:10.033Z,19.50
2023-04-16T05:00:33.846Z,18.43
2023-04-16T05:03:56.054Z,19.30
2023-04-16T05:07:18.000Z,19.33
2023-04-16T05:10:39.370Z,19.17
2023-04-16T05:14:01.053Z,19.73
2023-04-16T05:17:24.045Z,19.63
2023-04-16T05:20:45.635Z,19.40
2023-04-16T05:24:08.532Z,19.20
2023-04-16T05:27:30.159Z,19.70
2023-04-16T05:30:52.137Z,19.43
2023-04-16T05:34:15.482Z,18.87
2023-04-16T05:37:37.007Z,19.70
2023-04-16T05:40:59.742Z,19.13
2023-04-16T05:44:21.416Z,19.73
2023-04-16T05:47:43.450Z,19.23
2023-04-16T05:51:07.219Z,18.37
2023-04-16T05:54:29.114Z,18.95
2023-04-16T05:57:50.532Z,18.70
2023-04-16T06:01:12.667Z,21.03
2023-04-16T06:04:35.789Z,18.63
2023-04-16T06:07:59.390Z,18.83
2023-04-16T06:11:21.263Z,20.40
2023-04-16T06:14:43.484Z,19.07
2023-04-16T06:18:04.949Z,19.50
2023-04-16T06:21:27.741Z,19.83
2023-04-16T06:24:50.995Z,18.90
2023-04-16T06:28:12.696Z,19.13
2023-04-16T06:31:34.484Z,19.52
2023-04-16T06:34:56.502Z,18.88
2023-04-16T06:38:18.234Z,20.00
2023-04-16T06:41:41.961Z,19.20
2023-04-16T06:45:03.791Z,18.90
2023-04-16T06:48:25.348Z,18.93
2023-04-16T06:51:47.448Z,18.00
2023-04-16T06:55:10.165Z,18.67
2023-04-16T06:58:34.011Z,18.45
2023-04-16T07:01:55.775Z,18.70
2023-04-16T07:05:17.865Z,19.17
2023-04-16T07:08:39.608Z,18.58
2023-04-16T07:12:02.168Z,18.63
2023-04-16T07:15:26.079Z,19.65
2023-04-16T07:18:47.910Z,19.30
2023-04-16T07:22:09.485Z,19.40
2023-04-16T07:25:30.848Z,18.98
2023-04-16T07:28:52.726Z,18.50
2023-04-16T07:32:16.076Z,17.92
2023-04-16T07:35:37.746Z,18.73
2023-04-16T07:38:59.905Z,17.70
2023-04-16T07:42:21.712Z,18.77
2023-04-16T07:45:44.180Z,17.60
2023-04-16T07:49:07.658Z,17.65
2023-04-16T07:52:29.498Z,17.05
2023-04-16T07:55:50.965Z,18.92
2023-04-16T07:59:21.863Z,17.52
2023-04-16T08:02:45.659Z,18.25
2023-04-16T08:06:08.996Z,18.03
2023-04-16T08:09:31.786Z,18.25
2023-04-16T08:12:53.504Z,17.40
2023-04-16T08:16:14.990Z,18.45
2023-04-16T08:19:37.013Z,19.42
2023-04-16T08:23:00.394Z,18.15
2023-04-16T08:26:21.779Z,19.48
2023-04-16T08:29:43.442Z,18.83
2023-04-16T08:33:05.035Z,19.45
2023-04-16T08:36:28.095Z,18.63
2023-04-16T08:39:50.996Z,18.45
2023-04-16T08:43:14.440Z,18.23
2023-04-16T08:46:38.481Z,18.10
2023-04-16T08:50:00.726Z,19.65
2023-04-16T08:53:29.552Z,18.10
2023-04-16T08:56:53.269Z,16.20
2023-04-16T09:00:16.753Z,17.13
2023-04-16T09:03:38.338Z,16.75
2023-04-16T09:07:01.219Z,14.82
2023-04-16T09:10:23.552Z,15.75
2023-04-16T09:13:47.961Z,13.02
2023-04-16T09:17:10.939Z,14.27
2023-04-16T09:20:32.285Z,14.43
2023-04-16T09:23:54.412Z,14.40
2023-04-16T09:27:16.657Z,14.38
2023-04-16T09:30:39.873Z,15.32
2023-04-16T09:34:03.922Z,14.68
2023-04-16T09:37:26.651Z,13.85
2023-04-16T09:40:48.593Z,13.80
2023-04-16T09:44:10.514Z,13.63
2023-04-16T09:47:42.314Z,13.45
2023-04-16T09:51:06.821Z,13.55
2023-04-16T09:54:28.253Z,13.50
2023-04-16T09:57:50.111Z,13.85
2023-04-16T10:01:13.377Z,13.20
2023-04-16T10:04:46.981Z,13.05
2023-04-16T10:08:15.564Z,13.18
2023-04-16T10:11:37.856Z,13.55
2023-04-16T10:14:59.536Z,13.63
2023-04-16T10:18:22.191Z,13.95
2023-04-16T10:21:46.430Z,13.40
2023-04-16T10:25:09.450Z,13.07
2023-04-16T10:28:31.846Z,15.40
2023-04-16T10:31:55.289Z,12.43
2023-04-16T10:35:20.268Z,12.80
2023-04-16T10:38:49.257Z,11.60
2023-04-16T10:42:12.355Z,11.25
2023-04-16T10:45:38.926Z,11.10
2023-04-16T10:49:03.049Z,10.63
2023-04-16T10:52:25.536Z,10.52
2023-04-16T10:56:15.945Z,11.23
2023-04-16T10:59:39.750Z,10.40
2023-04-16T11:03:02.221Z,10.05
2023-04-16T11:06:26.643Z,11.48
2023-04-16T11:09:54.305Z,10.98
2023-04-16T11:13:18.081Z,11.40
2023-04-16T11:16:42.357Z,10.57
2023-04-16T11:20:05.164Z,10.35
2023-04-16T11:23:50.300Z,10.10
2023-04-16T11:27:13.930Z,11.52
2023-04-16T11:30:38.603Z,10.52
2023-04-16T11:34:00.981Z,10.45
2023-04-16T11:37:33.059Z,9.77
2023-04-16T11:40:55.164Z,10.75
2023-04-16T11:44:21.565Z,10.93
2023-04-16T11:47:51.883Z,10.02
2023-04-16T11:51:13.796Z,10.10
2023-04-16T11:54:36.958Z,10.88
2023-04-16T11:57:58.637Z,10.45
2023-04-16T12:01:22.052Z,11.07
2023-04-16T12:04:45.017Z,11.07
2023-04-16T12:08:08.626Z,10.48
2023-04-16T12:11:41.269Z,10.30
2023-04-16T12:15:04.597Z,11.13
2023-04-16T12:19:16.420Z,10.10
2023-04-16T12:22:41.504Z,9.88
2023-04-16T12:26:10.572Z,9.63
2023-04-16T12:29:32.664Z,9.77
2023-04-16T12:33:14.355Z,9.75
2023-04-16T12:36:36.190Z,9.30
2023-04-16T12:39:58.921Z,8.80
2023-04-16T12:43:22.085Z,8.55
2023-04-16T12:46:44.552Z,9.07
2023-04-16T12:50:07.249Z,9.40
2023-04-16T12:53:28.978Z,8.25
2023-04-16T12:56:52.029Z,8.88
2023-04-16T13:00:15.189Z,8.88
2023-04-16T13:03:37.333Z,8.65
2023-04-16T13:06:59.420Z,9.00
2023-04-16T13:10:23.464Z,8.68
2023-04-16T13:13:46.618Z,7.55
2023-04-16T13:17:08.233Z,7.78
2023-04-16T13:20:30.271Z,7.90
2023-04-16T13:23:54.060Z,8.35
2023-04-16T13:27:16.928Z,8.48
2023-04-16T13:30:41.069Z,8.38
2023-04-16T13:34:03.498Z,8.98
2023-04-16T13:37:25.325Z,8.68
2023-04-16T13:40:46.900Z,8.60
2023-04-16T13:44:08.806Z,8.40
2023-04-16T13:47:31.944Z,8.15
2023-04-16T13:50:53.619Z,7.47
2023-04-16T13:54:15.501Z,9.73
2023-04-16T13:57:37.847Z,10.32
2023-04-16T14:00:59.564Z,9.02
2023-04-16T14:04:22.674Z,16.63
2023-04-16T14:07:44.362Z,10.23
2023-04-16T14:11:06.602Z,8.75
2023-04-16T14:14:28.499Z,7.68
2023-04-16T14:17:49.965Z,7.78
2023-04-16T14:21:14.496Z,8.90
2023-04-16T14:24:36.207Z,8.38
2023-04-16T14:27:57.667Z,8.48
2023-04-16T14:31:20.930Z,8.38
2023-04-16T14:34:42.843Z,8.20
2023-04-16T14:38:05.965Z,8.80
2023-04-16T14:41:27.638Z,8.48
2023-04-16T14:44:49.664Z,9.15
2023-04-16T14:48:11.212Z,9.00
2023-04-16T14:51:33.990Z,8.50
2023-04-16T14:54:57.221Z,8.40
2023-04-16T14:58:19.295Z,9.43
2023-04-16T15:01:41.500Z,9.27
2023-04-16T15:05:03.349Z,9.20
2023-04-16T15:08:25.719Z,8.93
2023-04-16T15:11:48.861Z,8.27
2023-04-16T15:15:11.805Z,8.23
2023-04-16T15:18:34.362Z,8.70
2023-04-16T15:21:56.338Z,8.23
2023-04-16T15:25:17.913Z,8.65
2023-04-16T15:28:40.790Z,8.45
2023-04-16T15:32:02.683Z,9.10
2023-04-16T15:35:24.360Z,9.00
2023-04-16T15:38:46.007Z,9.25
2023-04-16T15:42:08.469Z,9.40
2023-04-16T15:45:31.939Z,8.50
2023-04-16T15:48:53.360Z,8.85
2023-04-16T15:52:15.528Z,8.73
2023-04-16T15:55:37.262Z,9.13
2023-04-16T15:58:58.804Z,9.00
2023-04-16T16:02:22.067Z,8.93
2023-04-16T16:05:43.567Z,9.23
2023-04-16T16:09:05.284Z,9.07
2023-04-16T16:12:27.328Z,7.93
2023-04-16T16:15:48.770Z,8.43
2023-04-16T16:19:12.510Z,7.88
2023-04-16T16:22:34.259Z,8.20
2023-04-16T16:25:56.059Z,8.05
2023-04-16T16:29:17.967Z,8.52
2023-04-16T16:32:40.918Z,7.68
2023-04-16T16:36:06.102Z,10.30
2023-04-16T16:39:27.858Z,8.60
2023-04-16T16:42:49.503Z,8.68
2023-04-16T16:46:11.519Z,8.30
2023-04-16T16:49:32.964Z,8.73
2023-04-16T16:52:56.017Z,7.95
2023-04-16T16:56:18.394Z,8.55
2023-04-16T16:59:39.998Z,8.40
2023-04-16T17:03:02.011Z,8.88
2023-04-16T17:06:27.171Z,9.10
2023-04-16T17:09:50.557Z,10.63
2023-04-16T17:13:13.643Z,9.82
2023-04-16T17:16:35.247Z,10.48
2023-04-16T17:19:57.120Z,10.32
2023-04-16T17:23:19.139Z,10.27
2023-04-16T17:26:42.134Z,9.52
2023-04-16T17:30:05.764Z,10.07
2023-04-16T17:33:27.593Z,9.15
2023-04-16T17:36:50.525Z,8.90
2023-04-16T17:40:14.480Z,9.13
2023-04-16T17:43:37.158Z,8.53
2023-04-16T17:46:58.898Z,8.93
2023-04-16T17:50:20.747Z,8.43
2023-04-16T17:53:43.554Z,8.52
2023-04-16T17:57:05.325Z,8.70
2023-04-16T18:00:28.609Z,8.25
2023-04-16T18:03:50.895Z,8.10
2023-04-16T18:07:13.297Z,8.07
2023-04-16T18:10:34.864Z,8.10
2023-04-16T18:13:56.334Z,8.13
2023-04-16T18:17:21.919Z,7.87
2023-04-16T18:20:44.047Z,7.55
2023-04-16T18:24:06.774Z,7.50
2023-04-16T18:27:28.806Z,8.07
2023-04-16T18:30:50.865Z,7.50
2023-04-16T18:34:13.596Z,7.63
2023-04-16T18:37:35.504Z,8.27
2023-04-16T18:40:57.135Z,7.67
2023-04-16T18:44:19.795Z,8.23
2023-04-16T18:47:41.656Z,8.70
2023-04-16T18:51:05.172Z,9.07
2023-04-16T18:54:27.609Z,8.40
2023-04-16T18:57:49.329Z,8.80
2023-04-16T19:01:13.652Z,8.07
2023-04-16T19:04:35.437Z,8.15
2023-04-16T19:07:58.231Z,8.48
2023-04-16T19:11:20.377Z,8.80
2023-04-16T19:14:42.164Z,8.97
2023-04-16T19:18:04.047Z,9.23
2023-04-16T19:21:25.893Z,9.47
2023-04-16T19:24:48.709Z,9.15
2023-04-16T19:28:10.604Z,9.40
2023-04-16T19:31:32.567Z,9.13
2023-04-16T19:34:54.200Z,9.30
2023-04-16T19:38:15.761Z,9.63
2023-04-16T19:41:39.159Z,9.37
2023-04-16T19:45:00.894Z,9.40
2023-04-16T19:48:23.103Z,9.30
2023-04-16T19:51:46.139Z,9.60
2023-04-16T19:55:08.819Z,9.17
2023-04-16T19:58:31.943Z,9.23
2023-04-16T20:01:54.085Z,9.37
2023-04-16T20:05:16.247Z,9.97
2023-04-16T20:08:38.614Z,9.53
2023-04-16T20:12:00.921Z,10.50
2023-04-16T20:15:24.197Z,9.63
2023-04-16T20:18:46.489Z,9.23
2023-04-16T20:22:08.004Z,9.90
2023-04-16T20:25:30.407Z,9.80
2023-04-16T20:28:51.901Z,10.57
2023-04-16T20:32:15.402Z,10.07
2023-04-16T20:35:37.111Z,10.13
2023-04-16T20:38:59.493Z,10.27
2023-04-16T20:42:22.529Z,10.57
2023-04-16T20:45:46.114Z,10.47
2023-04-16T20:49:09.171Z,10.30
2023-04-16T20:52:30.996Z,9.73
2023-04-16T20:55:52.335Z,10.17
2023-04-16T20:59:14.329Z,10.20
2023-04-16T21:02:36.193Z,10.30
2023-04-16T21:05:59.454Z,11.00
2023-04-16T21:09:21.583Z,10.97
2023-04-16T21:12:43.370Z,9.63
2023-04-16T21:16:06.199Z,10.97
2023-04-16T21:19:27.852Z,10.60
2023-04-16T21:22:55.126Z,9.87
2023-04-16T21:26:17.094Z,10.53
2023-04-16T21:29:39.042Z,10.90
2023-04-16T21:33:00.883Z,11.27
2023-04-16T21:36:22.394Z,11.40
2023-04-16T21:39:45.940Z,10.67
2023-04-16T21:43:07.943Z,10.53
2023-04-16T21:46:29.814Z,10.73
2023-04-16T21:49:51.662Z,10.40
2023-04-16T21:53:13.902Z,10.87
2023-04-16T21:56:36.915Z,10.60
2023-04-16T21:59:58.432Z,10.17
2023-04-16T22:03:26.221Z,10.03
2023-04-16T22:06:48.509Z,10.90
2023-04-16T22:10:11.806Z,10.73
2023-04-16T22:13:38.199Z,10.37
2023-04-16T22:16:59.906Z,11.23
2023-04-16T22:20:22.349Z,10.83
2023-04-16T22:23:46.705Z,10.83
2023-04-16T22:27:08.525Z,10.10
2023-04-16T22:30:31.239Z,10.70
2023-04-16T22:33:53.127Z,10.83
2023-04-16T22:37:15.668Z,10.77
2023-04-16T22:40:37.481Z,11.30
2023-04-16T22:43:59.462Z,11.40
2023-04-16T22:47:22.690Z,11.70
2023-04-16T22:50:48.720Z,12.10
2023-04-16T22:54:13.649Z,11.80
2023-04-16T22:57:35.632Z,12.20
2023-04-16T23:00:59.596Z,11.50
2023-04-16T23:04:22.940Z,10.70
2023-04-16T23:07:44.340Z,13.03
2023-04-16T23:11:06.428Z,11.83
2023-04-16T23:14:28.013Z,11.93
2023-04-16T23:17:50.172Z,11.60
2023-04-16T23:21:13.363Z,12.13
2023-04-16T23:24:34.734Z,11.80
2023-04-16T23:27:56.665Z,12.00
2023-04-16T23:31:18.531Z,11.40
2023-04-16T23:34:41.748Z,11.67
2023-04-16T23:38:05.138Z,12.30
2023-04-16T23:41:26.484Z,11.33
2023-04-16T23:44:48.482Z,11.83
2023-04-16T23:48:10.231Z,10.93
2023-04-16T23:51:32.024Z,11.07
2023-04-16T23:54:55.059Z,11.17
2023-04-16T23:58:16.483Z,11.30
